Wetterdaten: Dienstag, 23.11.2010
Datum Zeit Temp. A. Feuchte A. Luftdruck Regen Wind Richtung Richtung Sonnenschein UV Solar Windben
23.11.2010 00:00 3,9 C 88 % 1000,8 hPa 0,0 mm 3,2 km/h (1 Bft) NW 315 0 min 0 UV-I 0 W/m 16,1 km/h (3 Bft)
23.11.2010 00:10 3,9 C 88 % 1000,9 hPa 0,0 mm 1,6 km/h (1 Bft) N 360 0 min 0 UV-I 0 W/m 9,7 km/h (2 Bft)
23.11.2010 00:20 3,9 C 88 % 1000,9 hPa 0,0 mm 3,2 km/h (1 Bft) W-NW 292 0 min 0 UV-I 0 W/m 12,9 km/h (3 Bft)
23.11.2010 00:30 3,9 C 87 % 1001,0 hPa 0,0 mm 3,2 km/h (1 Bft) NW 315 0 min 0 UV-I 0 W/m 9,7 km/h (2 Bft)
23.11.2010 00:40 3,9 C 87 % 1000,9 hPa 0,0 mm 1,6 km/h (1 Bft) W-NW 292 0 min 0 UV-I 0 W/m 11,3 km/h (2 Bft)
23.11.2010 00:50 3,8 C 87 % 1001,0 hPa 0,0 mm 3,2 km/h (1 Bft) W-NW 292 0 min 0 UV-I 0 W/m 9,7 km/h (2 Bft)
23.11.2010 01:00 3,8 C 87 % 1001,0 hPa 0,0 mm 4,8 km/h (1 Bft) W-NW 292 0 min 0 UV-I 0 W/m 16,1 km/h (3 Bft)
23.11.2010 01:10 3,8 C 87 % 1001,2 hPa 0,0 mm 3,2 km/h (1 Bft) NW 315 0 min 0 UV-I 0 W/m 9,7 km/h (2 Bft)
23.11.2010 01:20 3,8 C 87 % 1001,3 hPa 0,0 mm 3,2 km/h (1 Bft) W-NW 292 0 min 0 UV-I 0 W/m 19,3 km/h (3 Bft)
23.11.2010 01:30 3,8 C 87 % 1001,1 hPa 0,0 mm 3,2 km/h (1 Bft) W-NW 292 0 min 0 UV-I 0 W/m 19,3 km/h (3 Bft)
23.11.2010 01:40 3,8 C 87 % 1001,1 hPa 0,0 mm 3,2 km/h (1 Bft) W-NW 292 0 min 0 UV-I 0 W/m 9,7 km/h (2 Bft)
23.11.2010 01:50 3,8 C 87 % 1001,3 hPa 0,0 mm 3,2 km/h (1 Bft) W 270 0 min 0 UV-I 0 W/m 14,5 km/h (3 Bft)
23.11.2010 02:00 3,8 C 87 % 1001,3 hPa 0,0 mm 3,2 km/h (1 Bft) W-NW 292 0 min 0 UV-I 0 W/m 14,5 km/h (3 Bft)
23.11.2010 02:10 3,8 C 86 % 1001,3 hPa 0,0 mm 3,2 km/h (1 Bft) W-NW 292 0 min 0 UV-I 0 W/m 16,1 km/h (3 Bft)
23.11.2010 02:20 3,7 C 86 % 1001,3 hPa 0,0 mm 3,2 km/h (1 Bft) W 270 0 min 0 UV-I 0 W/m 11,3 km/h (2 Bft)
23.11.2010 02:30 3,7 C 87 % 1001,3 hPa 0,0 mm 3,2 km/h (1 Bft) W-NW 292 0 min 0 UV-I 0 W/m 9,7 km/h (2 Bft)
23.11.2010 02:40 3,7 C 86 % 1001,3 hPa 0,0 mm 1,6 km/h (1 Bft) W-NW 292 0 min 0 UV-I 0 W/m 9,7 km/h (2 Bft)
23.11.2010 02:50 3,7 C 86 % 1001,3 hPa 0,0 mm 1,6 km/h (1 Bft) W-NW 292 0 min 0 UV-I 0 W/m 11,3 km/h (2 Bft)
23.11.2010 03:00 3,7 C 86 % 1001,3 hPa 0,0 mm 1,6 km/h (1 Bft) W 270 0 min 0 UV-I 0 W/m 9,7 km/h (2 Bft)
23.11.2010 03:10 3,7 C 86 % 1001,4 hPa 0,0 mm 1,6 km/h (1 Bft) W 270 0 min 0 UV-I 0 W/m 11,3 km/h (2 Bft)
23.11.2010 03:20 3,7 C 86 % 1001,3 hPa 0,0 mm 1,6 km/h (1 Bft) W-NW 292 0 min 0 UV-I 0 W/m 9,7 km/h (2 Bft)
23.11.2010 03:30 3,7 C 86 % 1001,3 hPa 0,0 mm 3,2 km/h (1 Bft) W 270 0 min 0 UV-I 0 W/m 14,5 km/h (3 Bft)
23.11.2010 03:40 3,7 C 86 % 1001,2 hPa 0,0 mm 3,2 km/h (1 Bft) W 270 0 min 0 UV-I 0 W/m 16,1 km/h (3 Bft)
23.11.2010 03:50 3,7 C 86 % 1001,1 hPa 0,0 mm 3,2 km/h (1 Bft) W 270 0 min 0 UV-I 0 W/m 9,7 km/h (2 Bft)
23.11.2010 04:00 3,8 C 86 % 1001,1 hPa 0,0 mm 3,2 km/h (1 Bft) W 270 0 min 0 UV-I 0 W/m 12,9 km/h (3 Bft)
23.11.2010 04:10 3,8 C 86 % 1001,1 hPa 0,0 mm 4,8 km/h (1 Bft) W 270 0 min 0 UV-I 0 W/m 16,1 km/h (3 Bft)
23.11.2010 04:20 3,8 C 86 % 1001,1 hPa 0,0 mm 3,2 km/h (1 Bft) W-NW 292 0 min 0 UV-I 0 W/m 9,7 km/h (2 Bft)
23.11.2010 04:30 3,7 C 86 % 1001,1 hPa 0,0 mm 3,2 km/h (1 Bft) W-NW 292 0 min 0 UV-I 0 W/m 17,7 km/h (3 Bft)
23.11.2010 04:40 3,7 C 86 % 1001,1 hPa 0,0 mm 1,6 km/h (1 Bft) W 270 0 min 0 UV-I 0 W/m 8,0 km/h (2 Bft)
23.11.2010 04:50 3,7 C 86 % 1001,1 hPa 0,0 mm 3,2 km/h (1 Bft) W 270 0 min 0 UV-I 0 W/m 17,7 km/h (3 Bft)
23.11.2010 05:00 3,7 C 86 % 1001,1 hPa 0,0 mm 4,8 km/h (1 Bft) W-NW 292 0 min 0 UV-I 0 W/m 17,7 km/h (3 Bft)
23.11.2010 05:10 3,6 C 86 % 1001,3 hPa 0,0 mm 1,6 km/h (1 Bft) W-NW 292 0 min 0 UV-I 0 W/m 9,7 km/h (2 Bft)
23.11.2010 05:20 3,6 C 87 % 1001,4 hPa 0,0 mm 3,2 km/h (1 Bft) W-NW 292 0 min 0 UV-I 0 W/m 16,1 km/h (3 Bft)
23.11.2010 05:30 3,4 C 87 % 1001,3 hPa 0,0 mm 4,8 km/h (1 Bft) W-NW 292 0 min 0 UV-I 0 W/m 17,7 km/h (3 Bft)
23.11.2010 05:40 3,3 C 87 % 1001,4 hPa 0,0 mm 4,8 km/h (1 Bft) W-NW 292 0 min 0 UV-I 0 W/m 16,1 km/h (3 Bft)
23.11.2010 05:50 3,3 C 87 % 1001,3 hPa 0,0 mm 1,6 km/h (1 Bft) W-NW 292 0 min 0 UV-I 0 W/m 8,0 km/h (2 Bft)
23.11.2010 06:00 3,2 C 87 % 1001,5 hPa 0,0 mm 3,2 km/h (1 Bft) W 270 0 min 0 UV-I 0 W/m 14,5 km/h (3 Bft)
23.11.2010 06:10 3,2 C 87 % 1001,4 hPa 0,0 mm 3,2 km/h (1 Bft) W-NW 292 0 min 0 UV-I 0 W/m 9,7 km/h (2 Bft)
23.11.2010 06:20 3,2 C 87 % 1001,5 hPa 0,0 mm 1,6 km/h (1 Bft) W-NW 292 0 min 0 UV-I 0 W/m 6,4 km/h (2 Bft)
23.11.2010 06:30 3,2 C 87 % 1001,4 hPa 0,0 mm 3,2 km/h (1 Bft) W-SW 247 0 min 0 UV-I 0 W/m 11,3 km/h (2 Bft)
23.11.2010 06:40 3,2 C 87 % 1001,4 hPa 0,0 mm 3,2 km/h (1 Bft) W 270 0 min 0 UV-I 0 W/m 9,7 km/h (2 Bft)
23.11.2010 06:50 3,2 C 87 % 1001,4 hPa 0,3 mm 3,2 km/h (1 Bft) W 270 0 min 0 UV-I 0 W/m 9,7 km/h (2 Bft)
23.11.2010 07:00 3,2 C 87 % 1001,3 hPa 0,0 mm 1,6 km/h (1 Bft) W 270 0 min 0 UV-I 0 W/m 8,0 km/h (2 Bft)
23.11.2010 07:10 3,2 C 87 % 1001,4 hPa 0,0 mm 1,6 km/h (1 Bft) W-SW 247 0 min 0 UV-I 0 W/m 8,0 km/h (2 Bft)
23.11.2010 07:20 3,3 C 87 % 1001,4 hPa 0,0 mm 3,2 km/h (1 Bft) W 270 0 min 0 UV-I 0 W/m 14,5 km/h (3 Bft)
23.11.2010 07:30 3,3 C 88 % 1001,4 hPa 0,0 mm 4,8 km/h (1 Bft) W 270 0 min 0 UV-I 0 W/m 11,3 km/h (2 Bft)
23.11.2010 07:40 3,3 C 88 % 1001,3 hPa 0,0 mm 4,8 km/h (1 Bft) W 270 0 min 0 UV-I 0 W/m 17,7 km/h (3 Bft)
23.11.2010 07:50 3,3 C 88 % 1001,3 hPa 0,0 mm 8,0 km/h (2 Bft) W 270 0 min 0 UV-I 0 W/m 20,9 km/h (4 Bft)
23.11.2010 08:00 3,4 C 88 % 1001,3 hPa 0,0 mm 3,8 km/h (1 Bft) W 271 0 min 0 UV-I 0 W/m 8,0 km/h (2 Bft)
23.11.2010 08:10 3,4 C 88 % 1001,4 hPa 0,0 mm 1,6 km/h (1 Bft) W 270 0 min 0 UV-I 0 W/m 9,7 km/h (2 Bft)
23.11.2010 08:20 3,4 C 89 % 1001,5 hPa 0,0 mm 4,8 km/h (1 Bft) W 270 0 min 0 UV-I 0 W/m 12,9 km/h (3 Bft)
23.11.2010 08:30 3,4 C 89 % 1001,5 hPa 0,0 mm 6,4 km/h (2 Bft) W 270 0 min 0 UV-I 0 W/m 17,7 km/h (3 Bft)
23.11.2010 08:40 3,5 C 89 % 1001,5 hPa 0,0 mm 4,8 km/h (1 Bft) W 270 0 min 0 UV-I 7 W/m 17,7 km/h (3 Bft)
23.11.2010 08:50 3,5 C 89 % 1001,5 hPa 0,0 mm 6,4 km/h (2 Bft) W 270 0 min 0 UV-I 19 W/m 17,7 km/h (3 Bft)
23.11.2010 09:00 3,6 C 89 % 1001,6 hPa 0,0 mm 4,8 km/h (1 Bft) W 270 0 min 0 UV-I 21 W/m 17,7 km/h (3 Bft)
23.11.2010 09:10 3,6 C 89 % 1001,5 hPa 0,0 mm 6,4 km/h (2 Bft) W 270 0 min 0 UV-I 21 W/m 22,5 km/h (4 Bft)
23.11.2010 09:20 3,7 C 89 % 1001,4 hPa 0,0 mm 6,4 km/h (2 Bft) W 270 0 min 0 UV-I 25 W/m 16,1 km/h (3 Bft)
23.11.2010 09:30 3,7 C 89 % 1001,5 hPa 0,0 mm 8,0 km/h (2 Bft) W 270 0 min 0 UV-I 25 W/m 19,3 km/h (3 Bft)
23.11.2010 09:40 3,7 C 89 % 1001,5 hPa 0,0 mm 6,4 km/h (2 Bft) W 270 0 min 0 UV-I 28 W/m 16,1 km/h (3 Bft)
23.11.2010 09:50 3,8 C 89 % 1001,4 hPa 0,0 mm 6,4 km/h (2 Bft) W 270 0 min 0 UV-I 40 W/m 19,3 km/h (3 Bft)
23.11.2010 10:00 3,8 C 89 % 1001,3 hPa 0,0 mm 4,8 km/h (1 Bft) W 270 0 min 0 UV-I 46 W/m 16,1 km/h (3 Bft)
23.11.2010 10:10 3,9 C 89 % 1001,4 hPa 0,0 mm 4,8 km/h (1 Bft) W 270 0 min 0 UV-I 49 W/m 14,5 km/h (3 Bft)
23.11.2010 10:20 4,0 C 89 % 1001,4 hPa 0,0 mm 6,4 km/h (2 Bft) W 270 0 min 0 UV-I 46 W/m 19,3 km/h (3 Bft)
23.11.2010 10:30 4,0 C 89 % 1001,5 hPa 0,0 mm 6,4 km/h (2 Bft) W 270 0 min 0 UV-I 47 W/m 20,9 km/h (4 Bft)
23.11.2010 10:40 4,1 C 89 % 1001,6 hPa 0,0 mm 6,4 km/h (2 Bft) W 270 0 min 0 UV-I 42 W/m 17,7 km/h (3 Bft)
23.11.2010 10:50 4,1 C 89 % 1001,5 hPa 0,0 mm 4,8 km/h (1 Bft) W 270 0 min 0 UV-I 39 W/m 17,7 km/h (3 Bft)
23.11.2010 11:00 4,1 C 89 % 1001,4 hPa 0,0 mm 6,4 km/h (2 Bft) W 270 0 min 0 UV-I 49 W/m 24,1 km/h (4 Bft)
23.11.2010 11:10 4,2 C 89 % 1001,1 hPa 0,0 mm 6,4 km/h (2 Bft) W 270 0 min 0 UV-I 42 W/m 24,1 km/h (4 Bft)
23.11.2010 11:20 4,2 C 89 % 1001,1 hPa 0,0 mm 4,8 km/h (1 Bft) W 270 0 min 0 UV-I 46 W/m 17,7 km/h (3 Bft)
23.11.2010 11:30 4,3 C 89 % 1001,1 hPa 0,0 mm 6,4 km/h (2 Bft) W 270 0 min 0 UV-I 70 W/m 19,3 km/h (3 Bft)
23.11.2010 11:40 4,3 C 89 % 1001,1 hPa 0,0 mm 6,4 km/h (2 Bft) W 270 0 min 0 UV-I 60 W/m 19,3 km/h (3 Bft)
23.11.2010 11:50 4,3 C 89 % 1001,1 hPa 0,0 mm 6,4 km/h (2 Bft) W 270 0 min 0 UV-I 60 W/m 16,1 km/h (3 Bft)
23.11.2010 12:00 4,4 C 89 % 1001,0 hPa 0,0 mm 6,4 km/h (2 Bft) W 270 0 min 0 UV-I 39 W/m 19,3 km/h (3 Bft)
23.11.2010 12:10 4,4 C 89 % 1001,0 hPa 0,3 mm 8,0 km/h (2 Bft) W-SW 247 0 min 0 UV-I 51 W/m 27,4 km/h (4 Bft)
23.11.2010 12:20 4,4 C 89 % 1000,7 hPa 0,0 mm 9,7 km/h (2 Bft) W 270 0 min 0 UV-I 58 W/m 25,7 km/h (4 Bft)
23.11.2010 12:30 4,4 C 89 % 1000,7 hPa 0,0 mm 9,7 km/h (2 Bft) W 270 0 min 0 UV-I 62 W/m 27,4 km/h (4 Bft)
23.11.2010 12:40 4,5 C 89 % 1000,7 hPa 0,0 mm 9,7 km/h (2 Bft) W 270 0 min 0 UV-I 49 W/m 25,7 km/h (4 Bft)
23.11.2010 12:50 4,5 C 89 % 1000,7 hPa 0,0 mm 9,7 km/h (2 Bft) W 270 0 min 0 UV-I 60 W/m 24,1 km/h (4 Bft)
23.11.2010 13:00 4,6 C 89 % 1000,7 hPa 0,0 mm 9,7 km/h (2 Bft) W 270 0 min 0 UV-I 65 W/m 27,4 km/h (4 Bft)
23.11.2010 13:10 4,7 C 89 % 1000,6 hPa 0,0 mm 8,0 km/h (2 Bft) W 270 0 min 0 UV-I 62 W/m 24,1 km/h (4 Bft)
23.11.2010 13:20 4,7 C 89 % 1000,7 hPa 0,0 mm 9,7 km/h (2 Bft) W 270 0 min 0 UV-I 37 W/m 24,1 km/h (4 Bft)
23.11.2010 13:30 4,7 C 89 % 1000,5 hPa 0,0 mm 6,4 km/h (2 Bft) W 270 0 min 0 UV-I 33 W/m 19,3 km/h (3 Bft)
23.11.2010 13:40 4,7 C 89 % 1000,4 hPa 0,0 mm 6,4 km/h (2 Bft) W 270 0 min 0 UV-I 28 W/m 20,9 km/h (4 Bft)
23.11.2010 13:50 4,8 C 89 % 1000,3 hPa 0,0 mm 8,0 km/h (2 Bft) W 270 0 min 0 UV-I 32 W/m 27,4 km/h (4 Bft)
23.11.2010 14:00 4,8 C 89 % 1000,3 hPa 0,0 mm 8,0 km/h (2 Bft) W 270 0 min 0 UV-I 23 W/m 22,5 km/h (4 Bft)
23.11.2010 14:10 4,8 C 89 % 1000,2 hPa 0,0 mm 9,7 km/h (2 Bft) W-SW 247 0 min 0 UV-I 28 W/m 25,7 km/h (4 Bft)
23.11.2010 14:20 4,8 C 89 % 1000,3 hPa 0,0 mm 6,4 km/h (2 Bft) W 270 0 min 0 UV-I 53 W/m 20,9 km/h (4 Bft)
23.11.2010 14:30 4,9 C 89 % 1000,2 hPa 0,0 mm 6,4 km/h (2 Bft) W-SW 247 0 min 0 UV-I 54 W/m 22,5 km/h (4 Bft)
23.11.2010 14:40 5,0 C 89 % 1000,2 hPa 0,0 mm 8,0 km/h (2 Bft) W 270 0 min 0 UV-I 49 W/m 20,9 km/h (4 Bft)
23.11.2010 14:50 5,0 C 88 % 1000,1 hPa 0,0 mm 6,4 km/h (2 Bft) W-SW 247 0 min 0 UV-I 32 W/m 22,5 km/h (4 Bft)
23.11.2010 15:00 5,1 C 89 % 1000,1 hPa 0,3 mm 6,4 km/h (2 Bft) W 270 0 min 0 UV-I 23 W/m 17,7 km/h (3 Bft)
23.11.2010 15:10 5,1 C 88 % 1000,0 hPa 0,0 mm 4,8 km/h (1 Bft) W-SW 247 0 min 0 UV-I 18 W/m 19,3 km/h (3 Bft)
23.11.2010 15:20 5,1 C 88 % 1000,0 hPa 0,0 mm 6,4 km/h (2 Bft) W 270 0 min 0 UV-I 23 W/m 22,5 km/h (4 Bft)
23.11.2010 15:30 5,1 C 88 % 1000,1 hPa 0,0 mm 11,3 km/h (2 Bft) W 270 0 min 0 UV-I 14 W/m 27,4 km/h (4 Bft)
23.11.2010 15:40 5,1 C 88 % 1000,0 hPa 0,0 mm 8,0 km/h (2 Bft) W 270 0 min 0 UV-I 16 W/m 20,9 km/h (4 Bft)
23.11.2010 15:50 5,1 C 88 % 1000,0 hPa 0,0 mm 8,0 km/h (2 Bft) W 270 0 min 0 UV-I 16 W/m 22,5 km/h (4 Bft)
23.11.2010 16:00 5,0 C 89 % 1000,0 hPa 0,0 mm 7,4 km/h (2 Bft) SW 229 0 min 0 UV-I 4 W/m 19,3 km/h (3 Bft)
23.11.2010 16:10 4,9 C 88 % 1000,0 hPa 0,0 mm 8,0 km/h (2 Bft) W 270 0 min 0 UV-I 7 W/m 22,5 km/h (4 Bft)
23.11.2010 16:20 4,9 C 88 % 999,9 hPa 0,0 mm 8,0 km/h (2 Bft) W-SW 247 0 min 0 UV-I 0 W/m 24,1 km/h (4 Bft)
23.11.2010 16:30 4,9 C 88 % 1000,0 hPa 0,0 mm 8,0 km/h (2 Bft) W 270 0 min 0 UV-I 0 W/m 22,5 km/h (4 Bft)
23.11.2010 16:40 4,8 C 88 % 1000,1 hPa 0,3 mm 9,7 km/h (2 Bft) W 270 0 min 0 UV-I 0 W/m 24,1 km/h (4 Bft)
23.11.2010 16:50 4,8 C 88 % 1000,3 hPa 0,5 mm 8,0 km/h (2 Bft) W 270 0 min 0 UV-I 0 W/m 29,0 km/h (5 Bft)
23.11.2010 17:00 4,7 C 88 % 1000,3 hPa 0,0 mm 4,8 km/h (1 Bft) W-NW 292 0 min 0 UV-I 0 W/m 16,1 km/h (3 Bft)
23.11.2010 17:10 4,6 C 88 % 1000,2 hPa 0,0 mm 6,4 km/h (2 Bft) W 270 0 min 0 UV-I 0 W/m 17,7 km/h (3 Bft)
23.11.2010 17:20 4,6 C 89 % 1000,2 hPa 0,3 mm 6,4 km/h (2 Bft) W 270 0 min 0 UV-I 0 W/m 19,3 km/h (3 Bft)
23.11.2010 17:30 4,5 C 89 % 1000,2 hPa 0,0 mm 6,4 km/h (2 Bft) W 270 0 min 0 UV-I 0 W/m 17,7 km/h (3 Bft)
23.11.2010 17:40 4,5 C 89 % 1000,3 hPa 0,0 mm 8,0 km/h (2 Bft) W 270 0 min 0 UV-I 0 W/m 19,3 km/h (3 Bft)
23.11.2010 17:50 4,4 C 89 % 1000,2 hPa 0,0 mm 9,7 km/h (2 Bft) W 270 0 min 0 UV-I 0 W/m 25,7 km/h (4 Bft)
23.11.2010 18:00 4,3 C 89 % 1000,3 hPa 0,3 mm 9,7 km/h (2 Bft) W 270 0 min 0 UV-I 0 W/m 25,7 km/h (4 Bft)
23.11.2010 18:10 4,3 C 89 % 1000,3 hPa 0,0 mm 9,7 km/h (2 Bft) W 270 0 min 0 UV-I 0 W/m 25,7 km/h (4 Bft)
23.11.2010 18:20 4,2 C 89 % 1000,3 hPa 0,0 mm 9,7 km/h (2 Bft) W 270 0 min 0 UV-I 0 W/m 24,1 km/h (4 Bft)
23.11.2010 18:30 4,2 C 90 % 1000,4 hPa 0,3 mm 8,0 km/h (2 Bft) W 270 0 min 0 UV-I 0 W/m 29,0 km/h (5 Bft)
23.11.2010 18:40 4,1 C 90 % 1000,4 hPa 0,0 mm 9,7 km/h (2 Bft) W 270 0 min 0 UV-I 0 W/m 24,1 km/h (4 Bft)
23.11.2010 18:50 4,1 C 90 % 1000,4 hPa 0,3 mm 11,3 km/h (2 Bft) W 270 0 min 0 UV-I 0 W/m 30,6 km/h (5 Bft)
23.11.2010 19:00 4,0 C 90 % 1000,5 hPa 0,0 mm 9,7 km/h (2 Bft) W 270 0 min 0 UV-I 0 W/m 27,4 km/h (4 Bft)
23.11.2010 19:10 3,9 C 90 % 1000,4 hPa 0,3 mm 9,7 km/h (2 Bft) W 270 0 min 0 UV-I 0 W/m 27,4 km/h (4 Bft)
23.11.2010 19:20 3,9 C 90 % 1000,5 hPa 0,0 mm 9,7 km/h (2 Bft) W 270 0 min 0 UV-I 0 W/m 32,2 km/h (5 Bft)
23.11.2010 19:30 3,9 C 90 % 1000,5 hPa 0,3 mm 12,9 km/h (3 Bft) W 270 0 min 0 UV-I 0 W/m 29,0 km/h (5 Bft)
23.11.2010 19:40 3,8 C 90 % 1000,5 hPa 0,3 mm 9,7 km/h (2 Bft) W 270 0 min 0 UV-I 0 W/m 25,7 km/h (4 Bft)
23.11.2010 19:50 3,8 C 90 % 1000,5 hPa 0,0 mm 9,7 km/h (2 Bft) W 270 0 min 0 UV-I 0 W/m 25,7 km/h (4 Bft)
23.11.2010 20:00 3,8 C 90 % 1000,5 hPa 0,3 mm 9,7 km/h (2 Bft) W 270 0 min 0 UV-I 0 W/m 25,7 km/h (4 Bft)
23.11.2010 20:10 3,8 C 90 % 1000,5 hPa 0,0 mm 9,7 km/h (2 Bft) W 270 0 min 0 UV-I 0 W/m 25,7 km/h (4 Bft)
23.11.2010 20:20 3,8 C 90 % 1000,6 hPa 0,3 mm 9,7 km/h (2 Bft) W 270 0 min 0 UV-I 0 W/m 30,6 km/h (5 Bft)
23.11.2010 20:30 3,8 C 90 % 1000,6 hPa 0,0 mm 9,7 km/h (2 Bft) W 270 0 min 0 UV-I 0 W/m 29,0 km/h (5 Bft)
23.11.2010 20:40 3,8 C 91 % 1000,6 hPa 0,3 mm 8,0 km/h (2 Bft) W 270 0 min 0 UV-I 0 W/m 29,0 km/h (5 Bft)
23.11.2010 20:50 3,8 C 91 % 1000,7 hPa 0,3 mm 9,7 km/h (2 Bft) W 270 0 min 0 UV-I 0 W/m 25,7 km/h (4 Bft)
23.11.2010 21:00 3,8 C 90 % 1000,6 hPa 0,0 mm 8,0 km/h (2 Bft) W 270 0 min 0 UV-I 0 W/m 22,5 km/h (4 Bft)
23.11.2010 21:10 3,8 C 91 % 1000,7 hPa 0,0 mm 9,7 km/h (2 Bft) W 270 0 min 0 UV-I 0 W/m 25,7 km/h (4 Bft)
23.11.2010 21:20 3,7 C 91 % 1000,7 hPa 0,0 mm 8,0 km/h (2 Bft) W 270 0 min 0 UV-I 0 W/m 32,2 km/h (5 Bft)
23.11.2010 21:30 3,7 C 91 % 1000,7 hPa 0,3 mm 8,0 km/h (2 Bft) W 270 0 min 0 UV-I 0 W/m 19,3 km/h (3 Bft)
23.11.2010 21:40 3,7 C 91 % 1000,8 hPa 0,0 mm 9,7 km/h (2 Bft) W 270 0 min 0 UV-I 0 W/m 27,4 km/h (4 Bft)
23.11.2010 21:50 3,7 C 91 % 1000,9 hPa 0,3 mm 8,0 km/h (2 Bft) W 270 0 min 0 UV-I 0 W/m 27,4 km/h (4 Bft)
23.11.2010 22:00 3,7 C 91 % 1000,9 hPa 0,0 mm 9,7 km/h (2 Bft) W 270 0 min 0 UV-I 0 W/m 22,5 km/h (4 Bft)
23.11.2010 22:10 3,7 C 91 % 1001,0 hPa 0,3 mm 6,4 km/h (2 Bft) W 270 0 min 0 UV-I 0 W/m 20,9 km/h (4 Bft)
23.11.2010 22:20 3,7 C 91 % 1001,0 hPa 0,0 mm 6,4 km/h (2 Bft) W-NW 292 0 min 0 UV-I 0 W/m 24,1 km/h (4 Bft)
23.11.2010 22:30 3,7 C 91 % 1001,0 hPa 0,3 mm 8,0 km/h (2 Bft) W 270 0 min 0 UV-I 0 W/m 25,7 km/h (4 Bft)
23.11.2010 22:40 3,8 C 91 % 1001,0 hPa 0,0 mm 8,0 km/h (2 Bft) W 270 0 min 0 UV-I 0 W/m 20,9 km/h (4 Bft)
23.11.2010 23:00 3,8 C 91 % 1001,1 hPa 0,0 mm 8,8 km/h (2 Bft) W 271 0 min 0 UV-I 0 W/m 24,1 km/h (4 Bft)
23.11.2010 23:10 3,8 C 91 % 1001,2 hPa 0,0 mm 8,4 km/h (2 Bft) W 264 0 min 0 UV-I 0 W/m 22,5 km/h (4 Bft)
23.11.2010 23:20 3,8 C 91 % 1001,2 hPa 0,0 mm 8,7 km/h (2 Bft) W 264 0 min 0 UV-I 0 W/m 24,1 km/h (4 Bft)
_ Min-Zeit 06:20 02:10 16:20 - 00:10 - - - - - 06:20
Minimum _ 3,1 C 86 % 999,9 hPa - 1,6 km/h (1 Bft) - - - - - 6,4 km/h (2 Bft)
_ Max-Zeit 14:50 20:40 09:00 16:50 19:30 - - 00:00 00:00 11:30 19:20
Maximum _ 5,1 C 91 % 1001,6 hPa 0,5 mm 12,9 km/h
W (3 Bft)
- - 0 min 0 UV-I 70 W/m 32,2 km/h
W (5 Bft)
Durchschnitt _ 4,0 C 88 % 1000,9 hPa #5,3 mm 6,1 km/h (2 Bft) W - #0 min. 0 UV-I 37 W/m 19,1 km/h (3 Bft)